This is the latest recevied weather packets stored in our database for station/object K0VSC-1. If no packets are shown the sender has not sent any weather packets the latest 10 day(s).
| Time | Temp. | Humidity | Pressure | Rain* | Wind** | Luminosity | Snow |
|---|---|---|---|---|---|---|---|
| 1777934887 | 7.78° C | 46% | 1003.6 hPa | 0 mm | - | 167 W/m² | - |
| 1777934587 | 7.78° C | 47% | 1003.7 hPa | 0 mm | - | 134 W/m² | - |
| 1777934287 | 7.78° C | 46% | 1003.7 hPa | 0 mm | - | 130 W/m² | - |
| 1777933987 | 7.78° C | 45% | 1003.5 hPa | 0 mm | - | 144 W/m² | - |
| 1777933687 | 7.78° C | 46% | 1003.4 hPa | 0 mm | - | 160 W/m² | - |
| 1777933387 | 7.78° C | 46% | 1003.4 hPa | 0 mm | - | 223 W/m² | - |
| 1777933087 | 8.33° C | 46% | 1003.2 hPa | 0 mm | - | 178 W/m² | - |
| 1777932787 | 8.33° C | 47% | 1003.1 hPa | 0 mm | - | 255 W/m² | - |
| 1777932487 | 8.33° C | 45% | 1003 hPa | 0 mm | - | 213 W/m² | - |
| 1777932187 | 8.33° C | 44% | 1002.9 hPa | 0 mm | - | 272 W/m² | - |
| 1777931888 | 8.89° C | 46% | 1003 hPa | 0 mm | - | 216 W/m² | - |
| 1777931588 | 8.33° C | 47% | 1002.9 hPa | 0 mm | - | 592 W/m² | - |
| 1777931287 | 8.89° C | 46% | 1002.8 hPa | 0 mm | - | 206 W/m² | - |
| 1777930987 | 8.33° C | 46% | 1002.7 hPa | 0 mm | - | 202 W/m² | - |
| 1777930687 | 8.33° C | 46% | 1002.6 hPa | 0 mm | - | 214 W/m² | - |
| 1777930388 | 8.33° C | 45% | 1002.6 hPa | 0 mm | - | 279 W/m² | - |
| 1777930087 | 8.89° C | 46% | 1002.6 hPa | 0 mm | - | 206 W/m² | - |
| 1777929787 | 8.89° C | 46% | 1002.5 hPa | 0 mm | - | 195 W/m² | - |
| 1777929488 | 8.89° C | 45% | 1002.3 hPa | 0 mm | - | 200 W/m² | - |
| 1777929188 | 8.89° C | 45% | 1002.4 hPa | 0 mm | - | 223 W/m² | - |
| 1777928888 | 9.44° C | 44% | 1002.3 hPa | 0 mm | - | 188 W/m² | - |
| 1777928588 | 9.44° C | 43% | 1002.2 hPa | 0 mm | - | 214 W/m² | - |
| 1777928288 | 8.89° C | 44% | 1002 hPa | 0 mm | - | 330 W/m² | - |
| 1777927988 | 8.89° C | 44% | 1002 hPa | 0 mm | - | 272 W/m² | - |
| 1777927688 | 8.89° C | 45% | 1002.1 hPa | 0 mm | - | 237 W/m² | - |
* Rain latest hour (hover to see other rain measurements)
** Current wind speed in m/s (hover to see current wind gust speed)